createdAt,value
2023-02-17T00:01:24.469Z,57.10
2023-02-17T00:03:53.510Z,57.01
2023-02-17T00:06:22.480Z,56.58
2023-02-17T00:08:50.070Z,56.55
2023-02-17T00:11:18.395Z,57.24
2023-02-17T00:13:46.460Z,56.76
2023-02-17T00:16:18.409Z,56.50
2023-02-17T00:18:46.717Z,56.71
2023-02-17T00:21:17.444Z,56.80
2023-02-17T00:23:46.233Z,56.52
2023-02-17T00:26:14.354Z,56.74
2023-02-17T00:28:44.569Z,56.04
2023-02-17T00:31:17.389Z,55.97
2023-02-17T00:33:45.146Z,55.77
2023-02-17T00:36:15.860Z,56.07
2023-02-17T00:38:43.538Z,55.84
2023-02-17T00:41:10.927Z,55.53
2023-02-17T00:43:38.987Z,55.59
2023-02-17T00:46:06.790Z,55.86
2023-02-17T00:48:34.593Z,55.85
2023-02-17T00:51:02.101Z,55.81
2023-02-17T00:53:29.865Z,56.01
2023-02-17T00:55:57.312Z,55.41
2023-02-17T00:58:25.394Z,55.43
2023-02-17T01:00:52.791Z,55.69
2023-02-17T01:03:20.245Z,55.32
2023-02-17T01:05:49.586Z,55.56
2023-02-17T01:08:18.549Z,56.05
2023-02-17T01:10:47.041Z,56.49
2023-02-17T01:13:17.229Z,56.75
2023-02-17T01:15:49.929Z,56.53
2023-02-17T01:18:19.248Z,56.13
2023-02-17T01:20:47.041Z,55.99
2023-02-17T01:23:14.820Z,56.39
2023-02-17T01:25:45.590Z,56.16
2023-02-17T01:28:19.912Z,56.27
2023-02-17T01:30:48.401Z,56.77
2023-02-17T01:33:16.037Z,56.43
2023-02-17T01:35:43.642Z,56.88
2023-02-17T01:38:12.976Z,56.67
2023-02-17T01:40:47.566Z,56.41
2023-02-17T01:43:17.706Z,56.52
2023-02-17T01:45:53.702Z,56.21
2023-02-17T01:48:25.746Z,55.93
2023-02-17T01:51:09.788Z,56.33
2023-02-17T01:53:58.389Z,56.12
2023-02-17T01:56:27.026Z,55.82
2023-02-17T01:59:01.722Z,56.00
2023-02-17T02:01:32.146Z,56.62
2023-02-17T02:04:03.615Z,55.89
2023-02-17T02:06:34.265Z,56.65
2023-02-17T02:09:11.805Z,56.13
2023-02-17T02:11:39.522Z,55.74
2023-02-17T02:14:09.238Z,56.06
2023-02-17T02:16:50.948Z,56.48
2023-02-17T02:19:24.376Z,55.84
2023-02-17T02:21:51.697Z,56.23
2023-02-17T02:24:39.321Z,54.93
2023-02-17T02:27:28.144Z,55.18
2023-02-17T02:30:39.980Z,55.39
2023-02-17T02:33:20.757Z,55.88
2023-02-17T02:36:08.444Z,55.41
2023-02-17T02:38:43.177Z,54.73
2023-02-17T02:41:19.806Z,55.42
2023-02-17T02:43:49.557Z,54.59
2023-02-17T02:46:17.351Z,54.55
2023-02-17T02:48:45.998Z,54.56
2023-02-17T02:51:55.329Z,54.56
2023-02-17T02:54:50.695Z,54.89
2023-02-17T02:57:31.296Z,55.08
2023-02-17T03:00:17.918Z,54.48
2023-02-17T03:02:59.989Z,54.74
2023-02-17T03:05:37.000Z,54.52
2023-02-17T03:08:12.839Z,54.59
2023-02-17T03:10:54.127Z,55.23
2023-02-17T03:13:22.051Z,55.02
2023-02-17T03:15:50.056Z,54.88
2023-02-17T03:18:17.472Z,55.11
2023-02-17T03:20:53.360Z,55.02
2023-02-17T03:23:21.241Z,55.94
2023-02-17T03:25:50.065Z,55.31
2023-02-17T03:28:18.840Z,55.47
2023-02-17T03:30:47.122Z,55.45
2023-02-17T03:33:14.481Z,55.30
2023-02-17T03:35:41.840Z,54.66
2023-02-17T03:38:09.354Z,55.17
2023-02-17T03:40:36.794Z,55.09
2023-02-17T03:43:04.240Z,55.20
2023-02-17T03:45:32.210Z,54.93
2023-02-17T03:47:59.994Z,55.17
2023-02-17T03:50:27.353Z,55.38
2023-02-17T03:52:54.776Z,55.47
2023-02-17T03:55:22.212Z,55.47
2023-02-17T03:57:49.605Z,55.13
2023-02-17T04:00:17.265Z,55.53
2023-02-17T04:02:44.714Z,54.98
2023-02-17T04:05:12.251Z,55.21
2023-02-17T04:07:39.736Z,55.71
2023-02-17T04:10:09.547Z,55.88
2023-02-17T04:12:37.120Z,55.92
2023-02-17T04:15:04.734Z,56.04
2023-02-17T04:17:32.424Z,55.57
2023-02-17T04:20:00.188Z,55.99
2023-02-17T04:22:27.600Z,55.36
2023-02-17T04:24:55.044Z,55.12
2023-02-17T04:27:22.635Z,55.59
2023-02-17T04:29:51.967Z,55.42
2023-02-17T04:32:19.394Z,55.77
2023-02-17T04:34:46.775Z,55.69
2023-02-17T04:37:14.156Z,55.41
2023-02-17T04:39:41.666Z,55.48
2023-02-17T04:42:09.129Z,55.80
2023-02-17T04:44:36.646Z,55.21
2023-02-17T04:47:04.428Z,54.70
2023-02-17T04:49:32.431Z,56.00
2023-02-17T04:52:00.386Z,55.80
2023-02-17T04:54:28.325Z,55.32
2023-02-17T04:56:56.873Z,55.10
2023-02-17T04:59:25.669Z,55.48
2023-02-17T05:01:56.328Z,56.01
2023-02-17T05:04:27.499Z,55.68
2023-02-17T05:06:55.241Z,55.33
2023-02-17T05:09:23.864Z,55.67
2023-02-17T05:11:51.864Z,55.30
2023-02-17T05:14:23.015Z,54.71
2023-02-17T05:16:51.203Z,55.24
2023-02-17T05:19:19.036Z,54.72
2023-02-17T05:21:46.684Z,54.41
2023-02-17T05:24:14.555Z,54.77
2023-02-17T05:26:42.456Z,54.38
2023-02-17T05:29:10.643Z,54.01
2023-02-17T05:31:39.299Z,53.60
2023-02-17T05:34:08.125Z,54.29
2023-02-17T05:36:36.952Z,54.20
2023-02-17T05:39:05.096Z,54.32
2023-02-17T05:41:36.540Z,53.84
2023-02-17T05:44:04.424Z,53.88
2023-02-17T05:46:33.451Z,54.32
2023-02-17T05:49:03.767Z,54.46
2023-02-17T05:51:32.996Z,53.97
2023-02-17T05:54:00.970Z,53.80
2023-02-17T05:56:29.066Z,53.96
2023-02-17T05:58:57.048Z,53.46
2023-02-17T06:01:25.542Z,53.25
2023-02-17T06:03:56.387Z,53.57
2023-02-17T06:06:24.610Z,53.51
2023-02-17T06:08:53.315Z,53.17
2023-02-17T06:11:25.755Z,53.14
2023-02-17T06:13:54.967Z,52.94
2023-02-17T06:16:22.636Z,52.75
2023-02-17T06:18:51.454Z,53.03
2023-02-17T06:21:19.431Z,52.51
2023-02-17T06:23:47.692Z,53.02
2023-02-17T06:26:16.040Z,51.86
2023-02-17T06:28:45.056Z,52.07
2023-02-17T06:31:13.427Z,51.66
2023-02-17T06:33:42.551Z,51.68
2023-02-17T06:36:10.699Z,51.03
2023-02-17T06:38:38.247Z,50.91
2023-02-17T06:41:07.100Z,50.52
2023-02-17T06:43:34.660Z,50.38
2023-02-17T06:46:02.491Z,50.89
2023-02-17T06:48:33.488Z,50.01
2023-02-17T06:51:01.684Z,50.27
2023-02-17T06:53:29.635Z,50.06
2023-02-17T06:55:57.357Z,50.00
2023-02-17T06:58:28.160Z,49.95
2023-02-17T07:00:55.738Z,50.39
2023-02-17T07:03:24.745Z,50.15
2023-02-17T07:05:52.325Z,50.36
2023-02-17T07:08:19.941Z,50.60
2023-02-17T07:10:47.592Z,49.24
2023-02-17T07:13:15.245Z,49.60
2023-02-17T07:15:42.947Z,49.60
2023-02-17T07:18:12.361Z,50.75
2023-02-17T07:20:40.011Z,49.92
2023-02-17T07:23:07.740Z,49.63
2023-02-17T07:25:35.267Z,50.36
2023-02-17T07:28:03.142Z,50.51
2023-02-17T07:30:32.344Z,50.33
2023-02-17T07:33:00.105Z,49.60
2023-02-17T07:35:27.708Z,49.25
2023-02-17T07:37:58.554Z,49.40
2023-02-17T07:40:26.463Z,49.39
2023-02-17T07:42:54.628Z,49.98
2023-02-17T07:45:22.899Z,49.82
2023-02-17T07:47:50.532Z,50.18
2023-02-17T07:50:18.998Z,50.04
2023-02-17T07:52:46.833Z,50.08
2023-02-17T07:55:14.726Z,50.30
2023-02-17T07:57:42.474Z,50.70
2023-02-17T08:00:12.581Z,50.25
2023-02-17T08:02:44.288Z,50.45
2023-02-17T08:05:12.227Z,50.63
2023-02-17T08:07:39.796Z,49.29
2023-02-17T08:10:26.643Z,49.95
2023-02-17T08:13:12.938Z,50.51
2023-02-17T08:15:41.775Z,50.54
2023-02-17T08:18:11.479Z,49.80
2023-02-17T08:20:39.278Z,49.61
2023-02-17T08:23:07.035Z,50.23
2023-02-17T08:25:36.553Z,50.37
2023-02-17T08:28:09.105Z,49.53
2023-02-17T08:30:37.395Z,49.56
2023-02-17T08:33:08.957Z,49.57
2023-02-17T08:35:36.993Z,49.02
2023-02-17T08:38:04.914Z,49.34
2023-02-17T08:40:32.455Z,49.49
2023-02-17T08:43:03.487Z,49.50
2023-02-17T08:45:31.447Z,48.85
2023-02-17T08:47:59.666Z,49.18
2023-02-17T08:50:27.235Z,49.04
2023-02-17T08:52:55.383Z,49.32
2023-02-17T08:55:24.287Z,49.25
2023-02-17T08:57:51.946Z,48.57
2023-02-17T09:00:19.954Z,48.52
2023-02-17T09:02:47.918Z,48.81
2023-02-17T09:05:16.049Z,47.97
2023-02-17T09:07:44.016Z,48.69
2023-02-17T09:10:12.757Z,48.52
2023-02-17T09:12:41.516Z,48.19
2023-02-17T09:15:10.346Z,48.17
2023-02-17T09:17:41.881Z,47.97
2023-02-17T09:20:23.885Z,48.54
2023-02-17T09:22:52.722Z,49.11
2023-02-17T09:25:20.899Z,48.19
2023-02-17T09:27:48.874Z,49.02
2023-02-17T09:30:16.796Z,48.87
2023-02-17T09:32:44.719Z,48.69
2023-02-17T09:35:17.594Z,48.57
2023-02-17T09:37:45.727Z,48.70
2023-02-17T09:40:30.597Z,48.44
2023-02-17T09:42:58.768Z,49.24
2023-02-17T09:45:33.457Z,48.93
2023-02-17T09:48:06.375Z,49.00
2023-02-17T09:50:51.076Z,47.84
2023-02-17T09:53:53.814Z,47.95
2023-02-17T09:56:33.561Z,47.99
2023-02-17T09:59:07.764Z,48.46
2023-02-17T10:01:36.130Z,48.11
2023-02-17T10:04:11.934Z,48.37
2023-02-17T10:06:43.809Z,47.87
2023-02-17T10:09:36.764Z,47.48
2023-02-17T10:12:10.525Z,47.79
2023-02-17T10:14:46.082Z,48.16
2023-02-17T10:17:32.456Z,47.62
2023-02-17T10:20:11.862Z,48.36
2023-02-17T10:22:43.368Z,47.65
2023-02-17T10:25:20.330Z,47.93
2023-02-17T10:28:09.403Z,47.82
2023-02-17T10:30:48.036Z,47.57
2023-02-17T10:33:34.474Z,47.25
2023-02-17T10:36:13.176Z,48.31
2023-02-17T10:38:53.076Z,48.05
2023-02-17T10:41:28.429Z,47.82
2023-02-17T10:43:56.469Z,47.94
2023-02-17T10:46:29.770Z,47.14
2023-02-17T10:48:59.694Z,47.64
2023-02-17T10:51:30.506Z,47.93
2023-02-17T10:54:12.380Z,48.10
2023-02-17T10:56:42.059Z,47.64
2023-02-17T10:59:17.585Z,47.42
2023-02-17T11:01:45.414Z,47.55
2023-02-17T11:04:14.221Z,47.17
2023-02-17T11:06:51.476Z,47.10
2023-02-17T11:09:28.835Z,47.47
2023-02-17T11:12:03.073Z,47.72
2023-02-17T11:14:33.899Z,47.32
2023-02-17T11:17:04.612Z,47.10
2023-02-17T11:19:35.132Z,47.15
2023-02-17T11:22:05.991Z,47.55
2023-02-17T11:24:35.320Z,47.63
2023-02-17T11:27:12.364Z,47.12
2023-02-17T11:29:40.419Z,47.98
2023-02-17T11:32:12.857Z,47.73
2023-02-17T11:34:43.029Z,47.91
2023-02-17T11:37:13.824Z,47.98
2023-02-17T11:39:43.818Z,47.77
2023-02-17T11:42:21.316Z,46.93
2023-02-17T11:44:50.378Z,47.25
2023-02-17T11:47:40.199Z,47.53
2023-02-17T11:50:38.941Z,47.15
2023-02-17T11:53:28.818Z,46.50
2023-02-17T11:56:09.057Z,46.63
2023-02-17T11:58:49.012Z,46.64
2023-02-17T12:02:15.206Z,46.21
2023-02-17T12:05:24.721Z,46.87
2023-02-17T12:08:06.492Z,47.46
2023-02-17T12:10:46.516Z,46.35
2023-02-17T12:13:14.354Z,47.15
2023-02-17T12:16:09.128Z,46.72
2023-02-17T12:19:06.280Z,46.87
2023-02-17T12:21:55.371Z,46.86
2023-02-17T12:24:43.875Z,46.52
2023-02-17T12:27:33.661Z,46.65
2023-02-17T12:30:39.715Z,46.58
2023-02-17T12:33:16.602Z,47.89
2023-02-17T12:35:44.151Z,47.64
2023-02-17T12:38:17.182Z,47.00
2023-02-17T12:41:16.136Z,47.09
2023-02-17T12:44:07.584Z,47.17
2023-02-17T12:46:47.941Z,47.53
2023-02-17T12:49:31.033Z,48.29
2023-02-17T12:52:01.917Z,47.75
2023-02-17T12:54:52.534Z,47.56
2023-02-17T12:57:46.865Z,47.80
2023-02-17T13:00:46.658Z,48.26
2023-02-17T13:03:14.990Z,47.92
2023-02-17T13:06:04.657Z,48.29
2023-02-17T13:08:43.528Z,48.40
2023-02-17T13:11:28.104Z,48.02
2023-02-17T13:13:55.808Z,48.36
2023-02-17T13:16:23.847Z,48.43
2023-02-17T13:18:52.736Z,48.67
2023-02-17T13:21:27.928Z,49.36
2023-02-17T13:24:15.734Z,48.63
2023-02-17T13:26:44.674Z,48.68
2023-02-17T13:29:27.156Z,48.56
2023-02-17T13:32:04.049Z,49.22
2023-02-17T13:34:35.463Z,49.04
2023-02-17T13:37:18.601Z,49.03
2023-02-17T13:39:46.944Z,49.12
2023-02-17T13:42:35.675Z,48.88
2023-02-17T13:45:33.987Z,48.42
2023-02-17T13:48:32.345Z,48.50
2023-02-17T13:51:02.032Z,49.14
2023-02-17T13:53:38.672Z,49.03
2023-02-17T13:56:11.748Z,48.95
2023-02-17T13:58:44.070Z,48.71
2023-02-17T14:01:18.113Z,49.37
2023-02-17T14:03:55.550Z,49.00
2023-02-17T14:06:29.101Z,49.09
2023-02-17T14:08:57.328Z,49.71
2023-02-17T14:11:31.280Z,49.41
2023-02-17T14:14:01.236Z,49.81
2023-02-17T14:16:33.897Z,49.28
2023-02-17T14:19:16.645Z,49.53
2023-02-17T14:22:02.298Z,50.15
2023-02-17T14:24:38.790Z,49.49
2023-02-17T14:27:11.193Z,49.99
2023-02-17T14:29:49.661Z,49.88
2023-02-17T14:32:38.350Z,49.74
2023-02-17T14:35:13.300Z,50.01
2023-02-17T14:37:42.526Z,50.34
2023-02-17T14:40:20.553Z,49.71
2023-02-17T14:42:48.484Z,50.04
2023-02-17T14:45:16.972Z,49.77
2023-02-17T14:47:44.736Z,50.14
2023-02-17T14:50:13.147Z,49.60
2023-02-17T14:52:48.798Z,50.26
2023-02-17T14:55:26.944Z,49.86
2023-02-17T14:57:54.905Z,50.30
2023-02-17T15:00:22.879Z,50.13
2023-02-17T15:02:51.597Z,50.38
2023-02-17T15:05:19.834Z,50.71
2023-02-17T15:07:47.368Z,50.38
2023-02-17T15:10:29.374Z,50.27
2023-02-17T15:12:57.348Z,50.91
2023-02-17T15:15:25.032Z,50.49
2023-02-17T15:17:52.514Z,50.70
2023-02-17T15:20:20.064Z,50.72
2023-02-17T15:22:47.691Z,50.76
2023-02-17T15:25:32.913Z,50.79
2023-02-17T15:28:00.361Z,51.18
2023-02-17T15:30:28.631Z,50.81
2023-02-17T15:32:56.109Z,50.84
2023-02-17T15:35:26.707Z,50.90
2023-02-17T15:37:56.746Z,51.15
2023-02-17T15:40:26.322Z,50.91
2023-02-17T15:42:57.054Z,51.43
2023-02-17T15:45:25.426Z,51.66
2023-02-17T15:48:02.758Z,51.58
2023-02-17T15:50:30.223Z,51.71
2023-02-17T15:52:57.631Z,51.29
2023-02-17T15:55:26.235Z,51.42
2023-02-17T15:57:57.069Z,50.89
2023-02-17T16:00:27.573Z,51.20
2023-02-17T16:02:55.706Z,50.90
2023-02-17T16:05:27.454Z,50.40
2023-02-17T16:07:55.416Z,50.74
2023-02-17T16:10:29.636Z,50.79
2023-02-17T16:12:59.764Z,50.72
2023-02-17T16:15:31.001Z,51.17
2023-02-17T16:17:59.130Z,51.64
2023-02-17T16:20:35.357Z,51.19
2023-02-17T16:23:03.290Z,50.92
2023-02-17T16:25:31.119Z,51.71
2023-02-17T16:27:58.637Z,51.01
2023-02-17T16:30:35.961Z,51.58
2023-02-17T16:33:04.018Z,51.45
2023-02-17T16:35:32.824Z,51.54
2023-02-17T16:38:00.492Z,51.50
2023-02-17T16:40:32.858Z,51.42
2023-02-17T16:43:00.513Z,51.73
2023-02-17T16:45:31.721Z,51.83
2023-02-17T16:48:00.894Z,51.30
2023-02-17T16:50:30.940Z,51.68
2023-02-17T16:53:01.461Z,51.84
2023-02-17T16:55:32.019Z,51.03
2023-02-17T16:57:59.902Z,51.16
2023-02-17T17:00:30.038Z,51.48
2023-02-17T17:02:58.523Z,51.43
2023-02-17T17:05:28.292Z,51.39
2023-02-17T17:07:56.432Z,52.24
2023-02-17T17:10:28.154Z,52.19
2023-02-17T17:12:55.789Z,52.17
2023-02-17T17:15:23.936Z,52.82
2023-02-17T17:17:56.924Z,53.15
2023-02-17T17:20:31.354Z,53.11
2023-02-17T17:23:00.698Z,52.83
2023-02-17T17:25:29.388Z,53.22
2023-02-17T17:27:57.630Z,52.65
2023-02-17T17:30:31.631Z,52.79
2023-02-17T17:32:59.487Z,53.36
2023-02-17T17:35:27.548Z,52.94
2023-02-17T17:37:55.550Z,53.48
2023-02-17T17:40:48.720Z,52.93
2023-02-17T17:43:19.045Z,53.21
2023-02-17T17:45:47.647Z,52.91
2023-02-17T17:48:16.659Z,53.59
2023-02-17T17:50:44.456Z,52.66
2023-02-17T17:53:11.862Z,52.42
2023-02-17T17:55:39.368Z,52.13
2023-02-17T17:58:06.881Z,52.60
2023-02-17T18:00:34.418Z,52.73
2023-02-17T18:03:01.895Z,53.02
2023-02-17T18:05:29.586Z,53.25
2023-02-17T18:07:57.127Z,53.14
2023-02-17T18:10:24.737Z,53.15
2023-02-17T18:12:52.235Z,52.62
2023-02-17T18:15:19.991Z,53.36
2023-02-17T18:17:48.685Z,53.12
2023-02-17T18:20:16.225Z,53.01
2023-02-17T18:22:43.684Z,53.38
2023-02-17T18:25:11.194Z,53.23
2023-02-17T18:27:46.731Z,52.96
2023-02-17T18:30:20.532Z,52.73
2023-02-17T18:32:48.661Z,52.36
2023-02-17T18:35:16.799Z,52.90
2023-02-17T18:37:45.371Z,52.98
2023-02-17T18:40:17.660Z,53.33
2023-02-17T18:42:48.597Z,53.18
2023-02-17T18:45:16.618Z,53.10
2023-02-17T18:47:44.443Z,52.97
2023-02-17T18:50:12.846Z,53.39
2023-02-17T18:52:41.875Z,53.27
2023-02-17T18:55:09.930Z,53.32
2023-02-17T18:57:37.666Z,53.88
2023-02-17T19:00:09.606Z,53.71
2023-02-17T19:02:38.412Z,53.71
2023-02-17T19:05:07.881Z,53.05
2023-02-17T19:07:35.529Z,52.74
2023-02-17T19:10:03.648Z,52.33
2023-02-17T19:12:31.210Z,52.01
2023-02-17T19:14:58.615Z,51.32
2023-02-17T19:17:26.116Z,52.06
2023-02-17T19:19:53.537Z,52.53
2023-02-17T19:22:21.019Z,52.06
2023-02-17T19:24:52.806Z,52.33
2023-02-17T19:27:23.871Z,52.51
2023-02-17T19:29:51.283Z,52.29
2023-02-17T19:32:18.771Z,52.68
2023-02-17T19:34:46.232Z,52.66
2023-02-17T19:37:13.593Z,52.39
2023-02-17T19:39:41.104Z,52.00
2023-02-17T19:42:08.766Z,51.70
2023-02-17T19:44:36.140Z,51.91
2023-02-17T19:47:03.555Z,52.34
2023-02-17T19:49:31.667Z,52.23
2023-02-17T19:51:59.077Z,52.62
2023-02-17T19:54:26.536Z,52.61
2023-02-17T19:56:53.964Z,52.15
2023-02-17T19:59:21.462Z,52.93
2023-02-17T20:01:49.042Z,53.20
2023-02-17T20:04:16.912Z,52.55
2023-02-17T20:06:47.812Z,53.24
2023-02-17T20:09:19.477Z,53.01
2023-02-17T20:11:48.428Z,53.18
2023-02-17T20:14:16.112Z,53.77
2023-02-17T20:16:43.535Z,54.61
2023-02-17T20:19:10.900Z,55.21
2023-02-17T20:21:38.791Z,54.54
2023-02-17T20:24:06.586Z,54.80
2023-02-17T20:26:40.569Z,54.66
2023-02-17T20:29:08.628Z,54.71
2023-02-17T20:31:37.859Z,53.86
2023-02-17T20:34:07.199Z,54.21
2023-02-17T20:36:34.898Z,52.85
2023-02-17T20:39:02.839Z,53.33
2023-02-17T20:41:30.452Z,53.25
2023-02-17T20:44:01.573Z,53.13
2023-02-17T20:46:29.997Z,52.98
2023-02-17T20:48:57.444Z,53.21
2023-02-17T20:51:24.956Z,52.65
2023-02-17T20:53:52.514Z,52.95
2023-02-17T20:56:23.233Z,53.01
2023-02-17T20:58:51.799Z,53.11
2023-02-17T21:01:19.841Z,52.79
2023-02-17T21:03:48.063Z,52.61
